RYR369 UBBB-LKPR
Flight info
| Callsign | RYR369 |
|---|---|
| Flight time | N/A |
| Altitude | 35000 |
| Route | AGDA2D AGDAM M747 LUSAL N199 EDATA M11 REBLO UM11 CRM UL746 ODERO L746 LUGEB EKSUN RUSAG VERIG AMRAX MAVOR BODAL VLM VLM4S |
| Aircraft | B738/M-SDE2E3FGHIRWXY/L |
Departure
| Time | 2025-09-05 13:24 |
|---|---|
| Airport | Heydar Aliyev International Airport (UBBB) |
Arrival
| Time | N/A |
|---|---|
| Airport | Václav Havel Airport Prague (LKPR) |
| Time | Latitude | Longitude | Altitude | Speed | Heading |
|---|---|---|---|---|---|
| 2025-09-05 13:24 | 40.48725 | 49.74470 | 8084 ft | 257 kts | 191° |
| 2025-09-05 13:24 | 40.45087 | 49.73873 | 9005 ft | 275 kts | 191° |
| 2025-09-05 13:25 | 40.41208 | 49.73214 | 10188 ft | 285 kts | 192° |
| 2025-09-05 13:25 | 40.37148 | 49.72516 | 11037 ft | 309 kts | 191° |
| 2025-09-05 13:26 | 40.32682 | 49.71734 | 11512 ft | 342 kts | 193° |
| 2025-09-05 13:26 | 40.28496 | 49.68867 | 12394 ft | 346 kts | 230° |
| 2025-09-05 13:26 | 40.27219 | 49.66230 | 13023 ft | 344 kts | 249° |
| 2025-09-05 13:27 | 40.26975 | 49.60052 | 14193 ft | 349 kts | 282° |
| 2025-09-05 13:28 | 40.27241 | 49.50506 | 15844 ft | 358 kts | 266° |
| 2025-09-05 13:28 | 40.27029 | 49.43938 | 16911 ft | 364 kts | 268° |
| 2025-09-05 13:29 | 40.26864 | 49.37269 | 17932 ft | 369 kts | 268° |
| 2025-09-05 13:29 | 40.26679 | 49.30496 | 18914 ft | 375 kts | 268° |
| 2025-09-05 13:30 | 40.26678 | 49.23678 | 19836 ft | 381 kts | 276° |
| 2025-09-05 13:30 | 40.27119 | 49.20229 | 19959 ft | 386 kts | 282° |
| 2025-09-05 13:30 | 40.28649 | 49.13516 | 19997 ft | 383 kts | 288° |
| 2025-09-05 13:31 | 40.30385 | 49.06919 | 20003 ft | 383 kts | 288° |
| 2025-09-05 13:32 | 40.32912 | 48.97011 | 20003 ft | 382 kts | 287° |
| 2025-09-05 13:32 | 40.34565 | 48.90461 | 20003 ft | 382 kts | 287° |
| 2025-09-05 13:33 | 40.36227 | 48.83851 | 20003 ft | 382 kts | 287° |
| 2025-09-05 13:33 | 40.37886 | 48.77235 | 20003 ft | 382 kts | 287° |
| 2025-09-05 13:34 | 40.39531 | 48.70665 | 20003 ft | 382 kts | 287° |
| 2025-09-05 13:34 | 40.40356 | 48.67361 | 20003 ft | 382 kts | 287° |
| 2025-09-05 13:34 | 40.42017 | 48.60751 | 20003 ft | 382 kts | 288° |
| 2025-09-05 13:35 | 40.43722 | 48.54158 | 20003 ft | 382 kts | 288° |
| 2025-09-05 13:36 | 40.46229 | 48.44236 | 20003 ft | 382 kts | 287° |
| 2025-09-05 13:36 | 40.47869 | 48.37604 | 20003 ft | 382 kts | 287° |
| 2025-09-05 13:37 | 40.49489 | 48.31016 | 20003 ft | 382 kts | 287° |
| 2025-09-05 13:37 | 40.51124 | 48.24356 | 20290 ft | 387 kts | 287° |
| 2025-09-05 13:38 | 40.52779 | 48.17617 | 21293 ft | 389 kts | 287° |
| 2025-09-05 13:38 | 40.53611 | 48.14222 | 21710 ft | 392 kts | 287° |
| 2025-09-05 13:38 | 40.55298 | 48.07418 | 22514 ft | 397 kts | 287° |
| 2025-09-05 13:39 | 40.56998 | 48.00469 | 23285 ft | 402 kts | 287° |
| 2025-09-05 13:40 | 40.58524 | 47.89583 | 24372 ft | 408 kts | 274° |
| 2025-09-05 13:41 | 40.58987 | 47.74567 | 25698 ft | 416 kts | 272° |
| 2025-09-05 13:42 | 40.59871 | 47.47526 | 27719 ft | 430 kts | 272° |
| 2025-09-05 13:45 | 40.61213 | 47.11855 | 29334 ft | 435 kts | 277° |
| 2025-09-05 13:46 | 40.64080 | 46.84336 | 31478 ft | 431 kts | 277° |
| 2025-09-05 13:48 | 40.67228 | 46.53231 | 33618 ft | 427 kts | 277° |
| 2025-09-05 13:50 | 40.70222 | 46.22315 | 35000 ft | 427 kts | 277° |
| 2025-09-05 13:53 | 40.73511 | 45.87573 | 35003 ft | 425 kts | 277° |
| 2025-09-05 13:54 | 40.75949 | 45.60532 | 35003 ft | 425 kts | 276° |
| 2025-09-05 13:57 | 40.77967 | 45.25619 | 35003 ft | 425 kts | 273° |
| 2025-09-05 13:58 | 40.79145 | 44.98430 | 35003 ft | 425 kts | 273° |
| 2025-09-05 14:01 | 40.80623 | 44.63447 | 35003 ft | 425 kts | 273° |
| 2025-09-05 14:02 | 40.81670 | 44.36232 | 35003 ft | 425 kts | 272° |
| 2025-09-05 14:04 | 40.82816 | 44.05120 | 35003 ft | 425 kts | 272° |
| 2025-09-05 14:06 | 40.83828 | 43.73996 | 35003 ft | 425 kts | 272° |
| 2025-09-05 14:09 | 40.85581 | 43.39011 | 35003 ft | 425 kts | 274° |
| 2025-09-05 14:10 | 40.87053 | 43.11815 | 35003 ft | 425 kts | 274° |
| 2025-09-05 14:13 | 40.88845 | 42.76816 | 35003 ft | 425 kts | 273° |
| 2025-09-05 14:14 | 40.90147 | 42.49543 | 35003 ft | 425 kts | 273° |
| 2025-09-05 14:17 | 40.91722 | 42.14564 | 35003 ft | 425 kts | 273° |
| 2025-09-05 14:18 | 40.92877 | 41.87256 | 35595 ft | 424 kts | 273° |
| 2025-09-05 14:21 | 40.94266 | 41.52176 | 36955 ft | 431 kts | 272° |
| 2025-09-05 14:22 | 40.95336 | 41.24214 | 37566 ft | 440 kts | 272° |
| 2025-09-05 14:25 | 40.96547 | 40.87549 | 37990 ft | 446 kts | 272° |
| 2025-09-05 14:26 | 40.97451 | 40.58899 | 38003 ft | 447 kts | 272° |
| 2025-09-05 14:29 | 40.98488 | 40.21986 | 38003 ft | 447 kts | 272° |
| 2025-09-05 14:30 | 40.99222 | 39.93233 | 38003 ft | 447 kts | 271° |
| 2025-09-05 14:33 | 41.01715 | 39.56432 | 38003 ft | 447 kts | 277° |
| 2025-09-05 14:34 | 41.04441 | 39.27836 | 38003 ft | 447 kts | 276° |
| 2025-09-05 14:37 | 41.07833 | 38.91093 | 38003 ft | 447 kts | 276° |
| 2025-09-05 14:38 | 41.10361 | 38.62524 | 38003 ft | 447 kts | 276° |
| 2025-09-05 14:40 | 41.13091 | 38.29865 | 38003 ft | 446 kts | 276° |
| 2025-09-05 14:42 | 41.15755 | 37.97144 | 38003 ft | 446 kts | 276° |
| 2025-09-05 14:44 | 41.18473 | 37.64479 | 38003 ft | 446 kts | 276° |
| 2025-09-05 14:47 | 41.21071 | 37.27637 | 38003 ft | 446 kts | 275° |
| 2025-09-05 14:48 | 41.23236 | 36.98988 | 38003 ft | 446 kts | 275° |
| 2025-09-05 14:50 | 41.25728 | 36.66274 | 38003 ft | 445 kts | 275° |
| 2025-09-05 14:52 | 41.31726 | 36.34456 | 38002 ft | 446 kts | 288° |
| 2025-09-05 14:54 | 41.39620 | 36.03196 | 38003 ft | 446 kts | 288° |
| 2025-09-05 14:57 | 41.48430 | 35.67942 | 38003 ft | 446 kts | 287° |
| 2025-09-05 14:58 | 41.55184 | 35.40443 | 38003 ft | 446 kts | 287° |
| 2025-09-05 15:00 | 41.62813 | 35.08984 | 38003 ft | 446 kts | 287° |
| 2025-09-05 15:02 | 41.70389 | 34.77409 | 38003 ft | 445 kts | 287° |
| 2025-09-05 15:04 | 41.77829 | 34.45711 | 38250 ft | 449 kts | 286° |
| 2025-09-05 15:06 | 41.85270 | 34.13571 | 38418 ft | 452 kts | 287° |
| 2025-09-05 15:08 | 41.92416 | 33.82681 | 38509 ft | 453 kts | 286° |
| 2025-09-05 15:10 | 41.99365 | 33.48680 | 38585 ft | 454 kts | 284° |
| 2025-09-05 15:12 | 42.05383 | 33.17145 | 38618 ft | 454 kts | 283° |
| 2025-09-05 15:14 | 42.11966 | 32.84320 | 38654 ft | 454 kts | 284° |
| 2025-09-05 15:16 | 42.18351 | 32.52680 | 38003 ft | 437 kts | 284° |
| 2025-09-05 15:19 | 42.25437 | 32.16710 | 38003 ft | 441 kts | 284° |
| 2025-09-05 15:21 | 42.31645 | 31.84645 | 38003 ft | 441 kts | 284° |
| 2025-09-05 15:23 | 42.37844 | 31.52566 | 38003 ft | 440 kts | 284° |
| 2025-09-05 15:25 | 42.43902 | 31.20539 | 37818 ft | 442 kts | 283° |
| 2025-09-05 15:26 | 42.48892 | 30.93519 | 36027 ft | 412 kts | 283° |
| 2025-09-05 15:29 | 42.55147 | 30.59557 | 36003 ft | 413 kts | 283° |
| 2025-09-05 15:30 | 42.59883 | 30.33054 | 36003 ft | 413 kts | 283° |
| 2025-09-05 15:33 | 42.75207 | 30.04781 | 36003 ft | 418 kts | 309° |
| 2025-09-05 15:34 | 42.88733 | 29.84006 | 36003 ft | 418 kts | 309° |
| 2025-09-05 15:37 | 43.06055 | 29.57205 | 36003 ft | 418 kts | 309° |
| 2025-09-05 15:38 | 43.19472 | 29.36234 | 36003 ft | 418 kts | 309° |
| 2025-09-05 15:41 | 43.36668 | 29.09130 | 36003 ft | 418 kts | 309° |
| 2025-09-05 15:42 | 43.49971 | 28.87986 | 36004 ft | 418 kts | 308° |
| 2025-09-05 15:45 | 43.67056 | 28.60622 | 36003 ft | 418 kts | 308° |
| 2025-09-05 15:46 | 43.78126 | 28.42041 | 36003 ft | 417 kts | 305° |
| 2025-09-05 15:49 | 43.95663 | 28.10024 | 36003 ft | 417 kts | 306° |
| 2025-09-05 15:50 | 44.08016 | 27.87615 | 36003 ft | 417 kts | 305° |
| 2025-09-05 15:53 | 44.23750 | 27.58642 | 36003 ft | 417 kts | 305° |
| 2025-09-05 15:54 | 44.35941 | 27.35984 | 36003 ft | 417 kts | 305° |
| 2025-09-05 15:57 | 44.50972 | 27.07800 | 36003 ft | 417 kts | 304° |
| 2025-09-05 15:59 | 44.64787 | 26.81652 | 36003 ft | 417 kts | 304° |
| 2025-09-05 16:01 | 44.78536 | 26.55391 | 36003 ft | 417 kts | 304° |
| 2025-09-05 16:02 | 44.90513 | 26.32316 | 36002 ft | 417 kts | 304° |
| 2025-09-05 16:05 | 45.05843 | 26.02509 | 36003 ft | 417 kts | 304° |
| 2025-09-05 16:06 | 45.17711 | 25.79219 | 36003 ft | 417 kts | 304° |
| 2025-09-05 16:09 | 45.32904 | 25.49123 | 36003 ft | 417 kts | 303° |
| 2025-09-05 16:10 | 45.44649 | 25.25636 | 36003 ft | 417 kts | 303° |
| 2025-09-05 16:13 | 45.59705 | 24.95243 | 36003 ft | 417 kts | 303° |
| 2025-09-05 16:14 | 45.71352 | 24.71506 | 36003 ft | 417 kts | 303° |
| 2025-09-05 16:17 | 45.86225 | 24.40900 | 36003 ft | 417 kts | 303° |
| 2025-09-05 16:18 | 45.97756 | 24.16944 | 36003 ft | 417 kts | 302° |
| 2025-09-05 16:21 | 46.12503 | 23.86003 | 36003 ft | 417 kts | 302° |
| 2025-09-05 16:22 | 46.23921 | 23.61811 | 36003 ft | 417 kts | 302° |
| 2025-09-05 16:25 | 46.38521 | 23.30569 | 36003 ft | 416 kts | 302° |
| 2025-09-05 16:26 | 46.49810 | 23.06171 | 36003 ft | 416 kts | 302° |
| 2025-09-05 16:29 | 46.64245 | 22.74659 | 36002 ft | 416 kts | 302° |
| 2025-09-05 16:30 | 46.75418 | 22.50021 | 36003 ft | 416 kts | 301° |
| 2025-09-05 16:33 | 46.89681 | 22.18247 | 36003 ft | 416 kts | 301° |
| 2025-09-05 16:34 | 47.00727 | 21.93388 | 36003 ft | 416 kts | 301° |
| 2025-09-05 16:37 | 47.14844 | 21.61287 | 36003 ft | 416 kts | 301° |
| 2025-09-05 16:38 | 47.25779 | 21.36161 | 36003 ft | 416 kts | 301° |
| 2025-09-05 16:41 | 47.39729 | 21.03769 | 36003 ft | 416 kts | 300° |
| 2025-09-05 16:42 | 47.50507 | 20.78477 | 36003 ft | 416 kts | 300° |
| 2025-09-05 16:45 | 47.64299 | 20.45767 | 36003 ft | 416 kts | 300° |
| 2025-09-05 16:46 | 47.74437 | 20.21471 | 36003 ft | 416 kts | 300° |
| 2025-09-05 16:49 | 47.88064 | 19.88464 | 36003 ft | 416 kts | 300° |
| 2025-09-05 16:50 | 47.98627 | 19.62715 | 36003 ft | 416 kts | 299° |
| 2025-09-05 16:53 | 48.12076 | 19.29447 | 36003 ft | 416 kts | 300° |
| 2025-09-05 16:54 | 48.22633 | 19.03552 | 36003 ft | 416 kts | 300° |
| 2025-09-05 16:56 | 48.34697 | 18.73980 | 36003 ft | 416 kts | 300° |
| 2025-09-05 16:58 | 48.46657 | 18.44201 | 36003 ft | 416 kts | 299° |
| 2025-09-05 17:00 | 48.58539 | 18.14254 | 36003 ft | 416 kts | 299° |
| 2025-09-05 17:02 | 48.70369 | 17.84232 | 36003 ft | 416 kts | 299° |
| 2025-09-05 17:04 | 48.82050 | 17.53986 | 36003 ft | 416 kts | 298° |
| 2025-09-05 17:06 | 48.93475 | 17.23472 | 36003 ft | 415 kts | 298° |
| 2025-09-05 17:08 | 49.04906 | 16.92887 | 36003 ft | 415 kts | 298° |
| 2025-09-05 17:10 | 49.15888 | 16.63085 | 34794 ft | 402 kts | 297° |
| 2025-09-05 17:12 | 49.26553 | 16.33767 | 31424 ft | 384 kts | 297° |
| 2025-09-05 17:14 | 49.36643 | 16.05851 | 28399 ft | 364 kts | 297° |
| 2025-09-05 17:16 | 49.46068 | 15.79247 | 25433 ft | 346 kts | 296° |
| 2025-09-05 17:17 | 49.50424 | 15.66422 | 24095 ft | 338 kts | 295° |
| 2025-09-05 17:18 | 49.52575 | 15.60018 | 23361 ft | 334 kts | 295° |
| 2025-09-05 17:18 | 49.54699 | 15.53685 | 22655 ft | 330 kts | 295° |
| 2025-09-05 17:19 | 49.56827 | 15.47500 | 21958 ft | 327 kts | 296° |
| 2025-09-05 17:20 | 49.59963 | 15.38269 | 20921 ft | 321 kts | 295° |
| 2025-09-05 17:20 | 49.60639 | 15.36246 | 20695 ft | 320 kts | 295° |
| 2025-09-05 17:20 | 49.62986 | 15.29185 | 19905 ft | 316 kts | 295° |
| 2025-09-05 17:21 | 49.64972 | 15.23187 | 19230 ft | 312 kts | 295° |
| 2025-09-05 17:21 | 49.66938 | 15.17239 | 18559 ft | 309 kts | 295° |
| 2025-09-05 17:22 | 49.68887 | 15.11345 | 17893 ft | 306 kts | 295° |
| 2025-09-05 17:22 | 49.70944 | 15.05624 | 17234 ft | 304 kts | 302° |
| 2025-09-05 17:23 | 49.73513 | 15.00484 | 16586 ft | 302 kts | 306° |
| 2025-09-05 17:23 | 49.76089 | 14.95386 | 15941 ft | 299 kts | 305° |
| 2025-09-05 17:24 | 49.78601 | 14.90349 | 15307 ft | 296 kts | 305° |
| 2025-09-05 17:24 | 49.81106 | 14.85316 | 14673 ft | 293 kts | 305° |
| 2025-09-05 17:25 | 49.83562 | 14.80341 | 14108 ft | 288 kts | 304° |
| 2025-09-05 17:26 | 49.87214 | 14.73002 | 13188 ft | 285 kts | 305° |
| 2025-09-05 17:26 | 49.88354 | 14.70713 | 12900 ft | 283 kts | 305° |
| 2025-09-05 17:26 | 49.90341 | 14.66681 | 12396 ft | 281 kts | 304° |
| 2025-09-05 17:27 | 49.92757 | 14.61741 | 11777 ft | 279 kts | 304° |
| 2025-09-05 17:27 | 49.95060 | 14.57012 | 11283 ft | 272 kts | 304° |
| 2025-09-05 17:28 | 49.98398 | 14.50140 | 10615 ft | 262 kts | 304° |
| 2025-09-05 17:28 | 49.99493 | 14.47882 | 10337 ft | 261 kts | 304° |
| 2025-09-05 17:29 | 50.01660 | 14.43414 | 10001 ft | 254 kts | 304° |
| 2025-09-05 17:29 | 50.03750 | 14.39263 | 9966 ft | 237 kts | 315° |
| 2025-09-05 17:30 | 50.06844 | 14.38085 | 9966 ft | 246 kts | 10° |
| 2025-09-05 17:30 | 50.09436 | 14.41613 | 9989 ft | 265 kts | 64° |
| 2025-09-05 17:31 | 50.09539 | 14.47108 | 9666 ft | 270 kts | 102° |
| 2025-09-05 17:31 | 50.09370 | 14.48596 | 9549 ft | 269 kts | 95° |